Time;durP1;ratioP1;P1;durP2;ratioP2;P2;SDS_P1;SDS_P2;PMS_P1;PMS_P2;Temp;Humidity;BMP_temperature;BMP_pressure;BME280_temperature;BME280_humidity;BME280_pressure;Samples;Min_cycle;Max_cycle;Signal;HPM_P1;HPM_P2
2021/06/01 00:01:36;;;;;;;14.52;11.27;;;;;;;18.21;53.27;101782.47;4974366;28;20134;-84
2021/06/01 00:04:03;;;;;;;16.23;11.57;;;;;;;18.20;53.04;101786.22;4994878;28;20111;-84
2021/06/01 00:06:28;;;;;;;16.35;12.65;;;;;;;18.27;52.60;101783.69;4992302;28;20042;-84
2021/06/01 00:08:54;;;;;;;18.40;12.18;;;;;;;18.31;52.57;101775.06;4975006;28;20042;-85
2021/06/01 00:11:20;;;;;;;14.02;10.00;;;;;;;18.26;52.60;101779.28;4992388;28;20038;-84
2021/06/01 00:13:45;;;;;;;14.10;10.35;;;;;;;18.26;52.23;101774.69;4992612;28;20042;-84
2021/06/01 00:16:13;;;;;;;17.45;11.73;;;;;;;18.10;53.00;101769.16;4974516;28;20469;-84
2021/06/01 00:18:39;;;;;;;17.77;12.65;;;;;;;18.01;53.46;101767.38;4991839;28;20109;-84
2021/06/01 00:21:05;;;;;;;22.50;13.07;;;;;;;17.98;53.56;101760.38;4974266;28;20037;-84
2021/06/01 00:23:35;;;;;;;18.13;11.30;;;;;;;18.01;53.32;101760.06;4993819;28;20026;-85
2021/06/01 00:26:01;;;;;;;17.67;13.80;;;;;;;17.99;53.26;101763.94;5006672;28;20039;-85
2021/06/01 00:28:26;;;;;;;17.17;14.07;;;;;;;17.90;53.47;101760.31;4991972;28;20070;-85
2021/06/01 00:30:51;;;;;;;17.27;11.88;;;;;;;17.89;53.21;101767.63;4974145;28;20121;-85
2021/06/01 00:33:17;;;;;;;19.73;12.57;;;;;;;17.88;53.30;101762.34;4974333;28;20030;-85
2021/06/01 00:35:42;;;;;;;20.33;14.20;;;;;;;17.78;53.77;101765.16;4973804;28;20034;-84
2021/06/01 00:38:07;;;;;;;18.85;14.02;;;;;;;17.76;53.78;101758.16;4991791;28;20037;-84
2021/06/01 00:40:34;;;;;;;17.20;11.75;;;;;;;17.82;53.75;101757.56;5006629;28;20045;-84
2021/06/01 00:43:00;;;;;;;17.80;13.68;;;;;;;17.77;53.66;101757.13;5008014;28;20104;-84
2021/06/01 00:45:27;;;;;;;20.63;13.98;;;;;;;17.67;53.55;101760.78;4975023;28;20061;-84
2021/06/01 00:47:53;;;;;;;16.95;12.68;;;;;;;17.68;53.56;101758.94;4991472;28;20030;-84
2021/06/01 00:50:25;;;;;;;13.90;11.35;;;;;;;17.66;53.95;101755.50;4974142;28;20034;-84
2021/06/01 00:52:51;;;;;;;21.65;11.90;;;;;;;17.63;54.07;101763.97;4991280;28;20483;-84
2021/06/01 00:55:17;;;;;;;20.20;15.00;;;;;;;17.54;54.41;101756.75;4991401;28;20034;-84
2021/06/01 00:57:43;;;;;;;20.67;14.88;;;;;;;17.50;54.53;101766.25;4991532;28;20112;-84
2021/06/01 01:00:23;;;;;;;16.58;13.68;;;;;;;17.53;54.56;101755.06;4991451;28;20156;-84
2021/06/01 01:02:50;;;;;;;26.27;17.58;;;;;;;17.47;54.74;101756.53;4973165;28;20092;-84
2021/06/01 01:05:17;;;;;;;21.70;14.48;;;;;;;17.52;54.43;101765.09;4973477;28;20407;-84
2021/06/01 01:08:20;;;;;;;13.95;11.82;;;;;;;17.50;54.76;101753.50;4994433;28;20033;-84
2021/06/01 01:10:47;;;;;;;19.10;14.75;;;;;;;17.31;55.54;101756.38;4973395;28;20057;-84
2021/06/01 01:13:14;;;;;;;20.80;15.52;;;;;;;17.32;55.74;101752.66;4973363;28;20114;-85
2021/06/01 01:15:42;;;;;;;18.77;12.55;;;;;;;17.33;56.15;101748.94;4991012;28;20430;-85
2021/06/01 01:18:14;;;;;;;20.90;15.23;;;;;;;17.32;55.62;101752.66;4990964;28;20399;-85
2021/06/01 01:20:57;;;;;;;22.25;15.82;;;;;;;17.33;55.66;101749.78;4973305;28;20026;-84
2021/06/01 01:23:27;;;;;;;20.38;15.70;;;;;;;17.32;55.94;101753.50;4973361;28;20118;-85
2021/06/01 01:26:22;;;;;;;20.95;14.60;;;;;;;17.38;55.81;101735.72;4991296;28;20514;-85
2021/06/01 01:29:13;;;;;;;18.63;13.68;;;;;;;17.38;55.68;101733.00;4991092;28;20034;-85
2021/06/01 01:32:01;;;;;;;19.60;15.18;;;;;;;17.38;55.73;101736.56;4974048;28;20848;-85
2021/06/01 01:34:28;;;;;;;19.55;14.93;;;;;;;17.38;55.91;101743.88;4990767;28;20113;-84
2021/06/01 01:36:55;;;;;;;21.75;15.77;;;;;;;17.35;55.67;101752.34;4973151;28;20034;-85
2021/06/01 01:39:24;;;;;;;22.48;12.45;;;;;;;17.38;55.17;101739.28;4973590;28;20487;-85
2021/06/01 01:41:50;;;;;;;21.20;14.02;;;;;;;17.18;56.23;101741.31;4990520;28;20038;-84
2021/06/01 01:44:18;;;;;;;22.65;15.93;;;;;;;17.03;56.21;101737.41;4971854;28;20056;-84
2021/06/01 01:49:18;;;;;;;23.23;14.95;;;;;;;17.13;55.79;101742.78;4992844;28;20171;-84
2021/06/01 01:51:46;;;;;;;20.05;13.88;;;;;;;17.12;54.92;101747.38;4973112;28;20034;-84
2021/06/01 01:54:17;;;;;;;18.60;14.50;;;;;;;17.02;55.61;101745.72;4972755;28;20104;-84
2021/06/01 01:56:50;;;;;;;18.65;13.55;;;;;;;16.95;55.66;101746.31;4990263;28;20509;-84
2021/06/01 01:59:19;;;;;;;18.23;13.90;;;;;;;16.93;55.44;101747.50;4991006;28;20034;-84
2021/06/01 02:01:47;;;;;;;20.58;14.82;;;;;;;16.81;55.64;101749.56;4990810;28;20031;-84
2021/06/01 02:04:16;;;;;;;19.75;13.88;;;;;;;16.73;55.68;101742.13;4972570;28;20062;-84
2021/06/01 02:06:41;;;;;;;20.13;11.73;;;;;;;16.79;55.55;101745.28;5005132;28;20082;-85
2021/06/01 02:09:08;;;;;;;17.85;14.27;;;;;;;16.63;55.83;101748.63;4973204;28;20038;-85
2021/06/01 02:11:34;;;;;;;17.35;13.98;;;;;;;16.70;55.40;101753.31;4992729;28;20057;-85
2021/06/01 02:14:03;;;;;;;22.35;15.93;;;;;;;16.73;55.20;101750.28;4990720;28;20589;-84
2021/06/01 02:16:48;;;;;;;21.40;15.02;;;;;;;16.75;55.28;101753.75;4972988;28;20406;-84
2021/06/01 02:19:15;;;;;;;18.77;13.60;;;;;;;16.71;54.96;101751.44;4990441;28;20101;-84
2021/06/01 02:24:57;;;;;;;20.60;13.77;;;;;;;16.73;55.30;101749.44;4956137;28;20046;-84
2021/06/01 02:27:38;;;;;;;20.27;14.90;;;;;;;16.64;55.42;101747.63;4990446;28;20125;-84
2021/06/01 02:30:09;;;;;;;18.88;14.70;;;;;;;16.55;56.46;101746.66;4972638;28;20062;-84
2021/06/01 02:32:40;;;;;;;24.63;16.95;;;;;;;16.50;56.63;101749.00;4972769;28;20062;-84
2021/06/01 02:35:13;;;;;;;20.25;14.90;;;;;;;16.50;56.26;101752.56;5005856;28;20038;-84
2021/06/01 02:37:41;;;;;;;16.35;12.40;;;;;;;16.51;56.38;101743.41;4972340;28;20393;-84
2021/06/01 02:40:09;;;;;;;21.25;16.90;;;;;;;16.39;56.56;101739.16;4990538;28;20027;-84
2021/06/01 02:42:37;;;;;;;30.88;18.90;;;;;;;16.37;56.56;101743.88;4990127;28;20064;-84
2021/06/01 02:45:03;;;;;;;22.70;16.35;;;;;;;16.42;56.27;101738.88;4990427;28;20385;-84
2021/06/01 02:47:28;;;;;;;25.33;17.65;;;;;;;16.43;56.11;101746.00;4972557;28;20030;-84
2021/06/01 02:49:54;;;;;;;22.45;17.20;;;;;;;16.41;55.90;101748.03;4972246;28;20018;-84
2021/06/01 02:52:20;;;;;;;20.08;15.07;;;;;;;16.45;56.08;101743.16;4972570;28;20125;-84
2021/06/01 02:54:46;;;;;;;17.98;15.23;;;;;;;16.43;56.98;101742.44;4992307;28;20119;-85
2021/06/01 02:57:12;;;;;;;24.85;18.95;;;;;;;16.28;57.85;101737.50;4993642;28;20038;-84
2021/06/01 02:59:39;;;;;;;26.27;19.23;;;;;;;16.33;57.78;101737.03;4976457;28;20093;-85
2021/06/01 03:02:05;;;;;;;23.27;16.25;;;;;;;16.29;58.28;101736.50;4993193;28;20052;-85
2021/06/01 03:04:33;;;;;;;23.58;17.00;;;;;;;16.18;58.03;101731.25;4993785;28;20117;-85
2021/06/01 03:06:59;;;;;;;25.30;15.55;;;;;;;16.23;58.39;101736.25;5008493;28;20023;-85
2021/06/01 03:09:25;;;;;;;22.60;16.23;;;;;;;16.28;58.26;101726.66;4975853;28;20045;-86
2021/06/01 03:11:52;;;;;;;20.35;14.65;;;;;;;16.18;57.55;101720.38;4993163;28;20038;-85
2021/06/01 03:14:17;;;;;;;18.08;12.93;;;;;;;16.34;55.77;101725.16;4976852;28;20482;-85
2021/06/01 03:16:42;;;;;;;22.77;13.25;;;;;;;16.17;56.17;101726.81;4975507;28;20058;-85
2021/06/01 03:19:08;;;;;;;21.00;13.20;;;;;;;16.30;55.76;101715.63;4976103;28;20022;-85
2021/06/01 03:21:34;;;;;;;17.63;13.88;;;;;;;16.43;55.45;101710.69;4975619;28;20069;-85
2021/06/01 03:23:59;;;;;;;21.13;14.70;;;;;;;16.50;55.65;101711.81;4975978;28;20049;-85
2021/06/01 03:26:25;;;;;;;19.13;14.32;;;;;;;16.48;55.93;101713.81;4975420;28;20390;-85
2021/06/01 03:28:50;;;;;;;22.92;14.10;;;;;;;16.55;55.44;101709.50;4975326;28;20053;-85
2021/06/01 03:31:15;;;;;;;22.25;15.60;;;;;;;16.57;55.46;101709.34;4992674;28;20136;-85
2021/06/01 03:33:41;;;;;;;21.15;14.63;;;;;;;16.54;56.31;101712.38;4994258;28;20587;-84
2021/06/01 03:36:07;;;;;;;23.85;17.58;;;;;;;16.44;56.64;101712.44;4992523;28;20114;-85
2021/06/01 03:38:35;;;;;;;20.52;14.90;;;;;;;16.28;56.72;101704.06;4975201;28;20030;-85
2021/06/01 03:41:00;;;;;;;24.73;16.13;;;;;;;16.23;56.36;101707.22;4992668;28;20030;-85
2021/06/01 03:43:26;;;;;;;18.17;13.85;;;;;;;16.19;55.98;101699.53;4975098;28;20034;-85
2021/06/01 03:45:51;;;;;;;19.08;12.88;;;;;;;16.18;55.57;101704.09;4992767;28;20443;-85
2021/06/01 03:48:16;;;;;;;21.13;14.18;;;;;;;16.17;55.12;101699.69;4992812;28;20113;-85
2021/06/01 03:50:42;;;;;;;21.85;13.30;;;;;;;16.24;54.87;101695.34;4974997;28;20030;-84
2021/06/01 03:53:07;;;;;;;21.92;14.52;;;;;;;15.83;56.07;101689.38;4974935;28;20057;-84
2021/06/01 03:55:32;;;;;;;18.33;13.57;;;;;;;16.00;55.97;101695.03;4993176;28;20030;-84
2021/06/01 03:57:58;;;;;;;18.02;14.77;;;;;;;16.01;55.91;101692.19;4974717;28;20030;-84
2021/06/01 04:00:28;;;;;;;23.48;13.57;;;;;;;16.01;55.88;101691.31;4974877;28;20085;-84
2021/06/01 04:02:53;;;;;;;20.13;13.38;;;;;;;16.13;55.33;101694.69;4992791;28;20030;-84
2021/06/01 04:05:19;;;;;;;17.27;12.18;;;;;;;16.21;54.98;101692.09;4992154;28;20030;-84
2021/06/01 04:07:46;;;;;;;22.65;12.88;;;;;;;16.15;55.16;101695.41;4974447;28;20426;-85
2021/06/01 04:10:12;;;;;;;16.77;12.70;;;;;;;16.21;55.13;101692.09;4992466;28;20037;-84
2021/06/01 04:12:37;;;;;;;23.30;15.77;;;;;;;16.17;54.80;101691.53;4995230;28;20042;-85
2021/06/01 04:15:03;;;;;;;19.48;13.52;;;;;;;16.18;54.91;101689.69;4991779;28;20034;-84
2021/06/01 04:17:29;;;;;;;17.08;13.38;;;;;;;16.20;54.83;101695.81;4992029;28;20030;-85
2021/06/01 04:19:54;;;;;;;21.83;13.35;;;;;;;16.19;54.52;101699.53;5007019;28;20022;-84
2021/06/01 04:22:19;;;;;;;18.92;12.68;;;;;;;16.30;54.35;101700.19;4974349;28;20030;-84
2021/06/01 04:24:45;;;;;;;18.02;13.63;;;;;;;16.27;54.83;101702.34;4991863;28;20459;-84
2021/06/01 04:27:10;;;;;;;22.95;14.70;;;;;;;16.17;54.90;101696.13;4974489;28;20061;-84
2021/06/01 04:29:35;;;;;;;19.63;13.93;;;;;;;16.22;55.19;101702.81;4974128;28;20110;-84
2021/06/01 04:32:02;;;;;;;23.58;15.18;;;;;;;16.33;55.11;101703.63;4973901;28;20487;-85
2021/06/01 04:34:27;;;;;;;23.17;15.52;;;;;;;16.41;55.32;101704.59;4974363;28;20031;-84
2021/06/01 04:36:52;;;;;;;18.35;15.55;;;;;;;16.50;55.03;101694.69;4991023;28;20034;-84
2021/06/01 04:39:18;;;;;;;18.10;13.85;;;;;;;16.54;54.44;101701.50;4991750;28;20057;-84
2021/06/01 04:41:43;;;;;;;20.17;14.23;;;;;;;16.53;55.26;101705.25;4991740;28;20493;-84
2021/06/01 04:44:08;;;;;;;21.92;14.50;;;;;;;16.60;54.32;101703.63;4974049;28;20117;-84
2021/06/01 04:46:34;;;;;;;15.55;13.10;;;;;;;16.65;53.91;101704.03;4991861;28;20157;-84
2021/06/01 04:49:00;;;;;;;19.75;14.30;;;;;;;16.67;54.23;101698.44;4991451;28;20076;-84
2021/06/01 04:51:26;;;;;;;16.38;13.02;;;;;;;16.59;53.83;101707.34;4991714;28;20042;-84
2021/06/01 04:53:55;;;;;;;19.42;13.80;;;;;;;16.57;54.04;101709.34;4974316;28;20502;-84
2021/06/01 04:56:21;;;;;;;24.35;14.52;;;;;;;16.43;54.10;101707.13;4991522;28;20046;-84
2021/06/01 04:58:47;;;;;;;13.52;11.93;;;;;;;16.43;53.47;101712.56;4991387;28;20066;-84
2021/06/01 05:01:13;;;;;;;19.70;15.05;;;;;;;16.49;53.59;101711.97;4991315;28;20428;-84
2021/06/01 05:03:40;;;;;;;16.80;14.13;;;;;;;16.52;53.64;101715.22;4991519;28;20065;-84
2021/06/01 05:06:07;;;;;;;19.13;13.50;;;;;;;16.65;53.19;101711.28;4991426;28;20544;-84
2021/06/01 05:08:34;;;;;;;20.20;13.38;;;;;;;16.67;53.09;101714.72;4973483;28;20426;-84
2021/06/01 05:10:59;;;;;;;16.95;13.00;;;;;;;16.63;52.84;101713.34;4973588;28;20038;-84
2021/06/01 05:13:25;;;;;;;15.60;12.00;;;;;;;16.68;51.87;101713.72;4973207;28;20034;-84
2021/06/01 05:15:51;;;;;;;22.55;14.27;;;;;;;16.74;53.01;101711.28;4994042;28;20307;-84
2021/06/01 05:18:17;;;;;;;17.88;12.60;;;;;;;16.74;52.17;101710.38;4990460;28;20030;-84
2021/06/01 05:20:43;;;;;;;14.85;11.98;;;;;;;16.70;51.38;101712.56;4990791;28;20030;-85
2021/06/01 05:23:09;;;;;;;21.90;10.85;;;;;;;16.77;50.18;101710.13;4990939;28;20041;-84
2021/06/01 05:25:35;;;;;;;15.18;12.75;;;;;;;16.75;50.69;101713.00;4990874;28;20032;-85
2021/06/01 05:28:00;;;;;;;19.30;12.00;;;;;;;16.71;50.07;101713.41;5005543;28;20478;-84
2021/06/01 05:30:55;;;;;;;16.27;12.38;;;;;;;16.67;50.83;101710.16;4991038;28;20036;-84
2021/06/01 05:33:23;;;;;;;18.83;12.98;;;;;;;16.77;50.21;101710.13;4989885;28;20040;-84
2021/06/01 05:35:52;;;;;;;18.38;12.30;;;;;;;16.74;49.48;101705.84;4973502;28;20046;-84
2021/06/01 05:38:20;;;;;;;14.45;11.38;;;;;;;16.68;48.93;101706.44;4992312;28;20426;-84
2021/06/01 05:40:45;;;;;;;16.25;11.63;;;;;;;16.72;48.69;101701.56;4991148;28;20421;-85
2021/06/01 05:43:11;;;;;;;14.95;11.57;;;;;;;16.50;49.03;101709.13;4990923;28;20117;-85
2021/06/01 05:45:37;;;;;;;18.08;11.85;;;;;;;16.60;48.31;101703.63;4973461;28;20026;-85
2021/06/01 05:48:04;;;;;;;17.42;11.77;;;;;;;16.70;48.82;101706.28;4990910;28;20034;-84
2021/06/01 05:50:29;;;;;;;13.85;11.55;;;;;;;16.79;48.47;101708.09;4990759;28;20035;-85
2021/06/01 05:52:55;;;;;;;13.38;10.95;;;;;;;16.82;48.94;101710.53;4990765;28;20561;-84
2021/06/01 05:55:20;;;;;;;14.05;10.32;;;;;;;16.86;48.52;101713.78;4972589;28;20026;-84
2021/06/01 05:57:46;;;;;;;18.25;10.98;;;;;;;16.94;48.43;101705.72;4991283;28;20031;-84
2021/06/01 06:00:15;;;;;;;15.88;9.65;;;;;;;16.97;47.20;101711.69;4975847;28;20034;-85
2021/06/01 06:02:40;;;;;;;15.93;10.20;;;;;;;17.00;46.89;101708.69;4990961;28;20799;-85
2021/06/01 06:05:06;;;;;;;11.80;9.80;;;;;;;17.06;46.68;101701.78;4990271;28;20034;-85
2021/06/01 06:07:31;;;;;;;13.55;9.50;;;;;;;17.12;46.48;101713.91;4990442;28;20076;-84
2021/06/01 06:09:57;;;;;;;12.80;9.32;;;;;;;17.10;46.60;101713.19;4987018;28;20038;-84
2021/06/01 06:12:32;;;;;;;13.77;9.18;;;;;;;17.00;46.67;101711.41;4967696;28;20129;-84
2021/06/01 06:14:58;;;;;;;9.73;8.60;;;;;;;17.07;46.85;101705.34;4975383;28;20038;-85
2021/06/01 06:17:39;;;;;;;12.07;9.23;;;;;;;17.10;46.16;101697.72;4965669;28;20022;-85
2021/06/01 06:20:16;;;;;;;12.60;9.45;;;;;;;17.08;46.99;101709.75;4994999;28;20091;-85
2021/06/01 06:22:46;;;;;;;13.27;9.80;;;;;;;17.14;47.51;101712.75;4971744;28;20069;-85
2021/06/01 06:25:25;;;;;;;13.48;10.40;;;;;;;17.27;46.96;101706.91;4982454;28;20470;-85
2021/06/01 06:28:04;;;;;;;13.48;9.85;;;;;;;17.41;48.45;101708.19;5000495;23;20054;-85
2021/06/01 06:30:32;;;;;;;18.52;9.80;;;;;;;17.55;47.32;101712.25;4970254;28;20651;-85
2021/06/01 06:33:01;;;;;;;11.02;8.45;;;;;;;17.54;47.26;101719.56;5006901;28;20034;-85
2021/06/01 06:35:35;;;;;;;11.52;9.05;;;;;;;17.65;48.43;101719.28;5005168;28;20178;-85
2021/06/01 06:38:02;;;;;;;10.55;9.02;;;;;;;17.80;47.52;101713.31;4998037;28;20042;-84
2021/06/01 06:40:27;;;;;;;13.10;8.75;;;;;;;17.91;47.64;101722.06;5010208;28;20034;-85
2021/06/01 06:42:52;;;;;;;10.13;6.35;;;;;;;18.01;45.87;101729.28;5011286;28;20394;-85
2021/06/01 06:45:18;;;;;;;8.68;6.75;;;;;;;18.03;44.43;101722.66;5013389;28;20021;-85
2021/06/01 06:50:21;;;;;;;10.77;6.60;;;;;;;17.92;43.20;101722.91;5011304;28;20022;-85
2021/06/01 06:52:47;;;;;;;7.57;6.20;;;;;;;17.73;42.81;101721.22;5010037;28;20490;-85
2021/06/01 06:55:13;;;;;;;10.30;6.03;;;;;;;17.91;44.36;101722.06;5009424;28;20049;-85
2021/06/01 06:57:40;;;;;;;9.75;5.70;;;;;;;17.90;41.24;101719.50;5007371;28;20128;-85
2021/06/01 07:00:11;;;;;;;10.32;5.18;;;;;;;18.01;40.61;101712.94;5009637;28;20105;-85
2021/06/01 07:02:38;;;;;;;9.55;6.10;;;;;;;18.26;40.59;101717.50;5009484;28;20056;-84
2021/06/01 07:05:04;;;;;;;9.45;5.57;;;;;;;18.22;39.40;101715.28;5012140;28;20034;-85
2021/06/01 07:07:30;;;;;;;10.82;4.65;;;;;;;18.35;38.56;101705.63;5011686;28;20032;-85
2021/06/01 07:09:55;;;;;;;8.13;5.03;;;;;;;18.44;38.98;101703.81;5010212;28;20486;-84
2021/06/01 07:12:23;;;;;;;6.35;3.90;;;;;;;18.60;37.80;101713.91;5011923;28;20052;-85
2021/06/01 07:14:51;;;;;;;5.25;3.38;;;;;;;18.56;35.56;101709.81;5009880;28;20492;-85
2021/06/01 07:17:22;;;;;;;10.02;3.80;;;;;;;18.62;35.18;101705.59;5009350;28;20030;-84
2021/06/01 07:19:50;;;;;;;10.25;3.38;;;;;;;18.55;34.75;101708.13;5010388;28;20537;-84
2021/06/01 07:22:16;;;;;;;6.38;3.75;;;;;;;18.61;34.53;101715.63;5008389;28;20072;-84
2021/06/01 07:24:43;;;;;;;5.40;3.40;;;;;;;18.72;35.65;101706.28;5010194;28;20034;-84
2021/06/01 07:27:11;;;;;;;6.78;3.13;;;;;;;18.62;34.46;101698.25;5014642;28;20080;-84
2021/06/01 07:29:39;;;;;;;5.10;3.05;;;;;;;18.78;36.00;101698.31;5013499;28;20029;-84
2021/06/01 07:32:07;;;;;;;4.85;3.13;;;;;;;18.61;34.39;101696.56;5011957;28;20038;-84
2021/06/01 07:34:37;;;;;;;6.07;3.00;;;;;;;18.68;35.14;101694.88;5009662;28;20060;-84
2021/06/01 07:37:03;;;;;;;7.22;3.17;;;;;;;18.83;35.08;101690.50;5009876;28;20402;-84
2021/06/01 07:39:31;;;;;;;5.47;2.83;;;;;;;18.80;34.34;101685.41;5009022;28;20026;-85
2021/06/01 07:41:59;;;;;;;3.53;2.65;;;;;;;18.78;35.46;101684.69;5009617;28;20069;-84
2021/06/01 07:44:25;;;;;;;4.93;2.75;;;;;;;18.86;34.22;101680.31;5009525;28;20026;-84
2021/06/01 07:46:50;;;;;;;4.35;2.20;;;;;;;18.83;32.71;101679.63;5008209;28;20034;-83
2021/06/01 07:49:17;;;;;;;10.15;3.50;;;;;;;18.79;33.39;101678.25;5011689;28;20774;-84
2021/06/01 07:51:44;;;;;;;4.35;2.22;;;;;;;18.93;33.92;101676.72;5010889;28;20029;-85
2021/06/01 07:54:17;;;;;;;5.18;2.10;;;;;;;18.92;32.92;101675.03;5008124;28;20502;-84
2021/06/01 07:56:44;;;;;;;6.50;2.42;;;;;;;18.93;33.62;101682.19;5006182;28;20041;-83
2021/06/01 07:59:17;;;;;;;4.82;2.55;;;;;;;19.03;32.71;101673.84;5009867;28;20462;-84
2021/06/01 08:01:43;;;;;;;5.63;2.60;;;;;;;19.03;32.92;101673.84;5010660;28;20371;-84
2021/06/01 08:04:11;;;;;;;2.95;2.65;;;;;;;19.11;33.10;101673.00;5008093;28;20466;-84
2021/06/01 08:06:40;;;;;;;3.47;2.03;;;;;;;19.09;31.73;101673.16;5007106;28;20401;-84
2021/06/01 08:09:08;;;;;;;9.18;2.83;;;;;;;19.08;32.27;101673.34;5006699;28;20030;-84
2021/06/01 08:11:35;;;;;;;2.60;2.22;;;;;;;19.18;32.81;101672.16;5006652;28;20030;-85
2021/06/01 08:14:04;;;;;;;8.32;2.60;;;;;;;19.22;32.84;101670.81;5010645;28;20021;-85
2021/06/01 08:16:45;;;;;;;5.82;2.55;;;;;;;19.31;33.11;101674.38;5011886;28;20056;-85
2021/06/01 08:19:15;;;;;;;5.40;2.38;;;;;;;19.41;33.61;101672.34;5008490;28;20040;-85
2021/06/01 08:26:54;;;;;;;4.85;2.50;;;;;;;19.42;33.03;101673.19;5016218;22;20414;-85
2021/06/01 08:31:54;;;;;;;7.43;2.30;;;;;;;19.47;32.82;101660.75;5063769;22;20068;-85
2021/06/01 08:34:24;;;;;;;13.30;3.03;;;;;;;19.51;33.11;101655.78;5007884;28;20180;-84
2021/06/01 08:36:54;;;;;;;4.57;2.20;;;;;;;19.54;33.10;101649.16;5009213;28;20048;-85
2021/06/01 08:39:24;;;;;;;5.88;2.70;;;;;;;19.57;32.91;101648.78;5027383;28;20131;-85
2021/06/01 08:41:52;;;;;;;7.82;2.60;;;;;;;19.56;33.91;101655.25;5008699;28;20029;-85
2021/06/01 08:44:19;;;;;;;4.18;2.45;;;;;;;19.61;32.43;101651.00;5009101;28;20508;-84
2021/06/01 08:46:49;;;;;;;9.57;2.80;;;;;;;19.52;31.95;101655.59;5009347;28;20500;-84
2021/06/01 08:49:16;;;;;;;5.80;2.72;;;;;;;19.58;32.38;101656.78;5008883;28;20064;-84
2021/06/01 08:51:54;;;;;;;7.93;3.00;;;;;;;19.53;30.89;101651.03;5008858;28;20029;-85
2021/06/01 08:54:21;;;;;;;6.20;2.78;;;;;;;19.63;32.75;101659.88;5007752;28;20080;-84
2021/06/01 08:56:54;;;;;;;9.95;2.95;;;;;;;19.70;32.75;101657.31;5029453;28;20072;-84
2021/06/01 08:59:19;;;;;;;8.70;3.28;;;;;;;19.66;32.73;101656.81;4995843;28;20254;-84
2021/06/01 09:01:47;;;;;;;5.65;2.70;;;;;;;19.78;33.04;101659.19;5027783;28;20360;-84
2021/06/01 09:04:13;;;;;;;6.72;3.00;;;;;;;19.81;32.88;101661.59;5009005;28;20181;-85
2021/06/01 09:06:54;;;;;;;7.38;3.10;;;;;;;19.78;31.51;101667.38;5021176;28;20041;-85
2021/06/01 09:23:05;;;;;;;4.32;3.20;;;;;;;20.17;31.50;101661.97;5027610;28;20560;-84
2021/06/01 09:26:07;;;;;;;6.93;3.30;;;;;;;20.29;32.27;101655.09;5011727;28;20029;-85
2021/06/01 09:28:24;;;;;;;8.95;3.65;;;;;;;20.31;31.08;101657.66;5022025;28;20058;-85
2021/06/01 09:31:01;;;;;;;5.78;2.53;;;;;;;20.34;32.51;101655.41;5026039;28;20033;-85
2021/06/01 09:33:40;;;;;;;4.70;2.50;;;;;;;20.41;32.73;101650.09;4968518;28;20038;-85
2021/06/01 09:36:09;;;;;;;2.75;2.53;;;;;;;20.48;31.72;101642.03;4988520;28;20500;-84
2021/06/01 09:38:48;;;;;;;6.90;2.55;;;;;;;20.55;32.20;101649.38;5007162;28;20022;-85
2021/06/01 09:41:16;;;;;;;3.92;2.72;;;;;;;20.57;31.38;101640.97;5004044;28;20042;-85
2021/06/01 09:44:02;;;;;;;7.07;2.70;;;;;;;20.68;32.22;101648.78;5026405;28;20025;-85
2021/06/01 09:46:28;;;;;;;3.80;2.88;;;;;;;20.62;30.78;101655.81;5026688;28;20030;-84
2021/06/01 09:49:12;;;;;;;2.35;2.15;;;;;;;20.76;30.49;101651.47;5010333;28;20033;-84
2021/06/01 09:51:54;;;;;;;2.78;2.00;;;;;;;20.84;30.78;101654.13;5026070;28;20048;-85
2021/06/01 09:54:46;;;;;;;4.57;2.30;;;;;;;20.93;30.29;101648.63;5007902;28;20168;-84
2021/06/01 09:57:23;;;;;;;2.22;2.03;;;;;;;21.11;29.94;101649.16;5007732;28;20107;-85
2021/06/01 10:00:10;;;;;;;4.03;2.40;;;;;;;21.34;30.74;101650.00;5007667;28;20428;-84
2021/06/01 10:02:36;;;;;;;3.80;2.80;;;;;;;21.44;30.55;101644.31;5007667;28;20067;-85
2021/06/01 10:05:12;;;;;;;5.47;2.60;;;;;;;21.61;31.25;101641.41;5004087;28;20029;-85
2021/06/01 10:07:37;;;;;;;5.45;2.38;;;;;;;21.71;30.25;101647.47;5011908;28;20306;-85
2021/06/01 10:10:12;;;;;;;8.80;2.30;;;;;;;21.92;30.25;101638.53;5028637;28;20593;-84
2021/06/01 10:12:38;;;;;;;5.78;2.05;;;;;;;21.86;27.86;101636.53;5026358;28;20029;-85
2021/06/01 10:15:03;;;;;;;2.55;1.92;;;;;;;21.85;27.18;101627.44;5011078;28;20040;-85
2021/06/01 10:17:29;;;;;;;4.90;2.00;;;;;;;21.81;26.49;101628.88;5012181;28;20029;-85
2021/06/01 10:19:55;;;;;;;5.32;1.85;;;;;;;22.01;27.63;101621.78;5011726;28;20021;-85
2021/06/01 10:22:31;;;;;;;2.30;1.90;;;;;;;21.93;27.20;101619.16;5018498;28;20038;-85
2021/06/01 10:24:58;;;;;;;2.35;2.10;;;;;;;21.96;27.87;101618.75;5007640;28;20037;-85
2021/06/01 10:27:24;;;;;;;5.63;2.35;;;;;;;22.09;28.28;101623.56;5010783;28;20021;-84
2021/06/01 10:29:49;;;;;;;4.13;1.60;;;;;;;22.13;28.07;101613.06;5012259;28;20032;-85
2021/06/01 10:32:15;;;;;;;4.32;2.20;;;;;;;22.17;27.89;101614.44;5013080;28;20033;-85
2021/06/01 10:34:48;;;;;;;1.95;1.75;;;;;;;22.23;27.70;101616.44;5029370;28;20044;-85
2021/06/01 10:51:56;;;;;;;8.02;1.83;;;;;;;23.18;27.62;101620.84;5003398;28;20071;-84
2021/06/01 10:54:41;;;;;;;5.82;2.10;;;;;;;23.27;26.48;101614.19;5011596;28;20053;-84
2021/06/01 10:57:09;;;;;;;3.28;2.08;;;;;;;23.46;26.55;101612.63;5028517;28;20025;-84
2021/06/01 11:02:33;;;;;;;5.60;1.90;;;;;;;23.65;26.62;101607.47;4987666;28;20063;-83
2021/06/01 11:05:03;;;;;;;3.25;2.20;;;;;;;23.62;25.72;101603.25;5007060;28;20021;-83
2021/06/01 11:07:54;;;;;;;6.45;2.40;;;;;;;23.76;27.80;101607.81;4996859;28;20287;-84
2021/06/01 11:10:41;;;;;;;2.78;2.50;;;;;;;23.83;26.86;101605.09;5010813;28;20485;-84
2021/06/01 11:13:31;;;;;;;7.13;2.45;;;;;;;23.96;26.70;101607.06;5010031;28;20037;-83
2021/06/01 11:15:59;;;;;;;5.70;2.17;;;;;;;23.81;26.57;101609.94;4992111;28;20034;-84
2021/06/01 11:21:09;;;;;;;8.10;2.40;;;;;;;24.10;27.56;101611.59;5025267;28;20638;-84
2021/06/01 11:24:17;;;;;;;7.22;2.10;;;;;;;24.23;26.87;101608.88;5010202;28;20473;-85
2021/06/01 11:35:31;;;;;;;4.07;2.20;;;;;;;24.67;26.39;101599.34;5028394;28;20450;-84
2021/06/01 11:40:58;;;;;;;4.15;2.50;;;;;;;24.50;25.77;101587.03;5028778;28;20529;-84
2021/06/01 11:43:26;;;;;;;3.33;2.33;;;;;;;24.65;25.81;101595.09;4988851;28;20096;-84
2021/06/01 11:51:18;;;;;;;2.42;1.92;;;;;;;24.76;24.51;101598.09;5027234;28;20029;-84
2021/06/01 11:53:52;;;;;;;2.40;1.92;;;;;;;24.81;24.17;101591.97;5009041;28;20037;-85
2021/06/01 12:02:37;;;;;;;3.47;2.13;;;;;;;24.75;23.57;101579.88;5226154;22;20077;-85
2021/06/01 12:19:10;;;;;;;1.60;1.50;;;;;;;25.42;20.42;101571.69;5028815;28;20028;-84
2021/06/01 12:21:43;;;;;;;3.65;1.90;;;;;;;25.72;20.41;101569.28;5001108;28;20438;-84
2021/06/01 12:24:17;;;;;;;1.63;1.15;;;;;;;26.02;21.26;101566.91;5000692;28;20043;-85
2021/06/01 12:27:14;;;;;;;2.40;1.30;;;;;;;26.30;20.15;101566.53;4997111;28;20037;-84
2021/06/01 12:32:27;;;;;;;3.10;1.50;;;;;;;27.01;18.67;101554.41;5020322;28;20036;-85
2021/06/01 12:35:15;;;;;;;2.10;1.30;;;;;;;27.10;17.64;101556.91;4990897;28;20030;-85
2021/06/01 12:46:17;;;;;;;;;;;;;;;28.31;16.79;101559.00;5007465;28;20049;-85
2021/06/01 13:07:17;;;;;;;4.75;1.20;;;;;;;32.65;13.76;101560.19;5110091;22;20045;-85
2021/06/01 13:12:40;;;;;;;2.30;1.40;;;;;;;33.09;11.88;101549.75;5024605;28;20106;-86
2021/06/01 13:36:56;;;;;;;5.53;0.90;;;;;;;31.09;16.71;101528.91;5023449;28;20113;-85
2021/06/01 13:39:38;;;;;;;3.70;1.17;;;;;;;31.22;16.22;101536.88;4996994;28;20042;-85
2021/06/01 13:51:03;;;;;;;2.63;1.60;;;;;;;30.97;16.44;101525.38;5025948;28;20045;-85
2021/06/01 13:56:10;;;;;;;;;;;;;;;30.90;18.62;101514.44;5026702;28;20037;-85
2021/06/01 14:09:37;;;;;;;6.75;1.50;;;;;;;30.52;18.70;101509.56;5026557;28;20090;-85
2021/06/01 14:39:23;;;;;;;3.95;1.20;;;;;;;30.62;19.26;101507.00;5025597;28;20078;-84